Aviation Digital Data Service (ADDS)

Output produced by METARs form (1001 UTC 19 December 2014)
found at http://aviationweather.gov/adds/metars/
 
KBAF 190919Z 1909/2006 33010KT P6SM BKN035 
     FM200000 34005KT P6SM BKN035 
     FM200300 34004KT P6SM BKN040